Portada
METAR-TAF:

METAR-TAF

Aeroports :

Valença, França

latitud: 44-54-58N, longitud: 4-58-06E, altitud: 160 m

Observació

L'informe es va fer fa 22 minuts, a les 17:00 UTC
Vent 8 kt del Nord/Nord-Oest
Temperatura 19°C
Humitat 64%
Pressió 1018 hPa
Visibilitat 10 km o més
sense núvols per sota de 1500 mi sense presència de cumulonimbus.

METAR: LFLU 191700Z AUTO 34008KT CAVOK 19/12 Q1018

Hora: 19:22 (17:22 UTC)


TAF: manca

Observacions i pronòstics meteorològics de més de 4000 aeroports (METAR i TAF).

Les estacions disponibles són els punts grocs i vermells al mapa.

Posi el ratolí al punt desitjat per veure el nom de l'estació.

Feu clic per veure les observacions i els pronòstics meteorològics.

Per canviar el mapa: feu clic els botons verds amb una creu de color negre per apropar; al botó verd amb un guió per allunyar la imatge; o en les fletxes verdes per a mapes adjacents.


METAR-TAF: